sensor_id;sensor_type;location;lat;lon;timestamp;P1;durP1;ratioP1;P2;durP2;ratioP2
7181;SDS011;3632;42.724;23.298;2024-03-02T00:00:43;32.07;;;23.07;;
7181;SDS011;3632;42.724;23.298;2024-03-02T00:03:11;30.57;;;22.60;;
7181;SDS011;3632;42.724;23.298;2024-03-02T00:05:40;29.50;;;22.23;;
7181;SDS011;3632;42.724;23.298;2024-03-02T00:08:07;31.00;;;22.30;;
7181;SDS011;3632;42.724;23.298;2024-03-02T00:10:35;29.03;;;22.10;;
7181;SDS011;3632;42.724;23.298;2024-03-02T00:13:05;30.97;;;23.17;;
7181;SDS011;3632;42.724;23.298;2024-03-02T00:15:40;35.73;;;25.27;;
7181;SDS011;3632;42.724;23.298;2024-03-02T00:18:10;34.93;;;23.70;;
7181;SDS011;3632;42.724;23.298;2024-03-02T00:20:38;32.27;;;22.93;;
7181;SDS011;3632;42.724;23.298;2024-03-02T00:23:07;28.93;;;21.87;;
7181;SDS011;3632;42.724;23.298;2024-03-02T00:25:38;30.80;;;22.77;;
7181;SDS011;3632;42.724;23.298;2024-03-02T00:28:10;34.33;;;22.87;;
7181;SDS011;3632;42.724;23.298;2024-03-02T00:30:49;33.57;;;23.77;;
7181;SDS011;3632;42.724;23.298;2024-03-02T00:33:18;31.70;;;22.53;;
7181;SDS011;3632;42.724;23.298;2024-03-02T00:35:47;30.20;;;22.47;;
7181;SDS011;3632;42.724;23.298;2024-03-02T00:38:15;31.60;;;23.27;;
7181;SDS011;3632;42.724;23.298;2024-03-02T00:40:42;34.57;;;23.47;;
7181;SDS011;3632;42.724;23.298;2024-03-02T00:43:11;35.03;;;23.60;;
7181;SDS011;3632;42.724;23.298;2024-03-02T00:46:00;31.43;;;23.47;;
7181;SDS011;3632;42.724;23.298;2024-03-02T00:48:27;32.80;;;22.13;;
7181;SDS011;3632;42.724;23.298;2024-03-02T00:50:56;32.07;;;22.90;;
7181;SDS011;3632;42.724;23.298;2024-03-02T00:53:25;42.53;;;30.77;;
7181;SDS011;3632;42.724;23.298;2024-03-02T00:55:52;33.03;;;23.97;;
7181;SDS011;3632;42.724;23.298;2024-03-02T00:58:19;29.07;;;22.30;;
7181;SDS011;3632;42.724;23.298;2024-03-02T01:00:46;40.37;;;28.30;;
7181;SDS011;3632;42.724;23.298;2024-03-02T01:03:12;32.17;;;23.80;;
7181;SDS011;3632;42.724;23.298;2024-03-02T01:05:41;31.73;;;22.90;;
7181;SDS011;3632;42.724;23.298;2024-03-02T01:08:08;31.03;;;24.23;;
7181;SDS011;3632;42.724;23.298;2024-03-02T01:10:36;29.83;;;22.30;;
7181;SDS011;3632;42.724;23.298;2024-03-02T01:13:03;33.13;;;24.03;;
7181;SDS011;3632;42.724;23.298;2024-03-02T01:15:30;34.00;;;23.37;;
7181;SDS011;3632;42.724;23.298;2024-03-02T01:17:58;32.20;;;23.00;;
7181;SDS011;3632;42.724;23.298;2024-03-02T01:20:25;31.57;;;23.10;;
7181;SDS011;3632;42.724;23.298;2024-03-02T01:22:50;28.80;;;20.83;;
7181;SDS011;3632;42.724;23.298;2024-03-02T01:25:18;30.30;;;22.20;;
7181;SDS011;3632;42.724;23.298;2024-03-02T01:27:46;28.93;;;21.73;;
7181;SDS011;3632;42.724;23.298;2024-03-02T01:30:13;31.70;;;22.33;;
7181;SDS011;3632;42.724;23.298;2024-03-02T01:32:40;29.87;;;22.13;;
7181;SDS011;3632;42.724;23.298;2024-03-02T01:35:07;32.20;;;22.77;;
7181;SDS011;3632;42.724;23.298;2024-03-02T01:37:34;30.47;;;21.93;;
7181;SDS011;3632;42.724;23.298;2024-03-02T01:40:01;28.00;;;21.23;;
7181;SDS011;3632;42.724;23.298;2024-03-02T01:42:34;32.27;;;21.80;;
7181;SDS011;3632;42.724;23.298;2024-03-02T01:45:03;29.50;;;21.63;;
7181;SDS011;3632;42.724;23.298;2024-03-02T01:47:30;29.20;;;21.43;;
7181;SDS011;3632;42.724;23.298;2024-03-02T01:49:58;30.40;;;22.60;;
7181;SDS011;3632;42.724;23.298;2024-03-02T01:52:25;35.07;;;23.30;;
7181;SDS011;3632;42.724;23.298;2024-03-02T01:54:52;29.63;;;23.13;;
7181;SDS011;3632;42.724;23.298;2024-03-02T01:57:19;31.17;;;22.00;;
7181;SDS011;3632;42.724;23.298;2024-03-02T01:59:46;32.17;;;22.53;;
7181;SDS011;3632;42.724;23.298;2024-03-02T02:02:15;30.70;;;21.93;;
7181;SDS011;3632;42.724;23.298;2024-03-02T02:04:41;32.43;;;21.77;;
7181;SDS011;3632;42.724;23.298;2024-03-02T02:07:09;27.33;;;21.80;;
7181;SDS011;3632;42.724;23.298;2024-03-02T02:09:36;33.80;;;22.80;;
7181;SDS011;3632;42.724;23.298;2024-03-02T02:12:03;29.17;;;22.47;;
7181;SDS011;3632;42.724;23.298;2024-03-02T02:14:32;34.00;;;22.77;;
7181;SDS011;3632;42.724;23.298;2024-03-02T02:16:58;32.57;;;23.27;;
7181;SDS011;3632;42.724;23.298;2024-03-02T02:19:27;30.00;;;22.20;;
7181;SDS011;3632;42.724;23.298;2024-03-02T02:21:55;32.23;;;23.00;;
7181;SDS011;3632;42.724;23.298;2024-03-02T02:24:21;31.83;;;21.73;;
7181;SDS011;3632;42.724;23.298;2024-03-02T02:26:48;31.90;;;22.97;;
7181;SDS011;3632;42.724;23.298;2024-03-02T02:29:15;31.13;;;22.57;;
7181;SDS011;3632;42.724;23.298;2024-03-02T02:31:41;30.00;;;21.37;;
7181;SDS011;3632;42.724;23.298;2024-03-02T02:34:08;31.47;;;23.17;;
7181;SDS011;3632;42.724;23.298;2024-03-02T02:36:36;30.70;;;22.47;;
7181;SDS011;3632;42.724;23.298;2024-03-02T02:39:06;35.70;;;23.70;;
7181;SDS011;3632;42.724;23.298;2024-03-02T02:41:37;31.30;;;21.77;;
7181;SDS011;3632;42.724;23.298;2024-03-02T02:44:04;30.83;;;22.77;;
7181;SDS011;3632;42.724;23.298;2024-03-02T02:46:31;31.37;;;23.27;;
7181;SDS011;3632;42.724;23.298;2024-03-02T02:48:57;32.73;;;23.63;;
7181;SDS011;3632;42.724;23.298;2024-03-02T02:51:24;36.20;;;24.93;;
7181;SDS011;3632;42.724;23.298;2024-03-02T02:53:51;31.57;;;22.97;;
7181;SDS011;3632;42.724;23.298;2024-03-02T02:56:19;32.73;;;23.13;;
7181;SDS011;3632;42.724;23.298;2024-03-02T02:58:46;29.63;;;22.50;;
7181;SDS011;3632;42.724;23.298;2024-03-02T03:01:13;30.70;;;23.20;;
7181;SDS011;3632;42.724;23.298;2024-03-02T03:03:42;31.43;;;22.63;;
7181;SDS011;3632;42.724;23.298;2024-03-02T03:06:09;32.63;;;23.37;;
7181;SDS011;3632;42.724;23.298;2024-03-02T03:08:36;32.17;;;22.93;;
7181;SDS011;3632;42.724;23.298;2024-03-02T03:11:03;30.60;;;22.40;;
7181;SDS011;3632;42.724;23.298;2024-03-02T03:13:31;32.77;;;24.00;;
7181;SDS011;3632;42.724;23.298;2024-03-02T03:15:58;38.23;;;26.53;;
7181;SDS011;3632;42.724;23.298;2024-03-02T03:18:25;36.20;;;24.60;;
7181;SDS011;3632;42.724;23.298;2024-03-02T03:20:51;31.17;;;22.70;;
7181;SDS011;3632;42.724;23.298;2024-03-02T03:23:18;32.90;;;22.27;;
7181;SDS011;3632;42.724;23.298;2024-03-02T03:25:46;31.13;;;21.73;;
7181;SDS011;3632;42.724;23.298;2024-03-02T03:28:12;32.43;;;22.10;;
7181;SDS011;3632;42.724;23.298;2024-03-02T03:30:40;33.07;;;22.77;;
7181;SDS011;3632;42.724;23.298;2024-03-02T03:33:08;29.80;;;23.10;;
7181;SDS011;3632;42.724;23.298;2024-03-02T03:35:35;33.30;;;22.77;;
7181;SDS011;3632;42.724;23.298;2024-03-02T03:38:03;30.63;;;22.87;;
7181;SDS011;3632;42.724;23.298;2024-03-02T03:40:30;33.00;;;23.43;;
7181;SDS011;3632;42.724;23.298;2024-03-02T03:42:57;34.70;;;23.27;;
7181;SDS011;3632;42.724;23.298;2024-03-02T03:45:25;34.63;;;23.07;;
7181;SDS011;3632;42.724;23.298;2024-03-02T03:47:53;33.20;;;23.50;;
7181;SDS011;3632;42.724;23.298;2024-03-02T03:50:20;32.80;;;23.43;;
7181;SDS011;3632;42.724;23.298;2024-03-02T03:52:46;32.07;;;22.87;;
7181;SDS011;3632;42.724;23.298;2024-03-02T03:55:13;32.87;;;24.33;;
7181;SDS011;3632;42.724;23.298;2024-03-02T03:57:40;33.93;;;24.63;;
7181;SDS011;3632;42.724;23.298;2024-03-02T04:00:07;33.83;;;24.93;;
7181;SDS011;3632;42.724;23.298;2024-03-02T04:02:36;36.80;;;25.67;;
7181;SDS011;3632;42.724;23.298;2024-03-02T04:05:05;34.57;;;24.20;;
7181;SDS011;3632;42.724;23.298;2024-03-02T04:07:34;35.50;;;25.07;;
7181;SDS011;3632;42.724;23.298;2024-03-02T04:10:06;32.80;;;23.67;;
7181;SDS011;3632;42.724;23.298;2024-03-02T04:12:34;37.57;;;25.40;;
7181;SDS011;3632;42.724;23.298;2024-03-02T04:15:01;35.70;;;23.93;;
7181;SDS011;3632;42.724;23.298;2024-03-02T04:17:29;35.10;;;24.17;;
7181;SDS011;3632;42.724;23.298;2024-03-02T04:19:57;35.73;;;25.67;;
7181;SDS011;3632;42.724;23.298;2024-03-02T04:22:26;33.27;;;24.43;;
7181;SDS011;3632;42.724;23.298;2024-03-02T04:24:52;36.47;;;24.83;;
7181;SDS011;3632;42.724;23.298;2024-03-02T04:27:19;34.13;;;24.40;;
7181;SDS011;3632;42.724;23.298;2024-03-02T04:29:46;36.17;;;24.70;;
7181;SDS011;3632;42.724;23.298;2024-03-02T04:32:13;36.00;;;25.00;;
7181;SDS011;3632;42.724;23.298;2024-03-02T04:34:39;39.83;;;25.30;;
7181;SDS011;3632;42.724;23.298;2024-03-02T04:37:06;40.13;;;26.07;;
7181;SDS011;3632;42.724;23.298;2024-03-02T04:39:35;34.83;;;25.70;;
7181;SDS011;3632;42.724;23.298;2024-03-02T04:42:01;33.20;;;24.70;;
7181;SDS011;3632;42.724;23.298;2024-03-02T04:44:28;35.93;;;26.93;;
7181;SDS011;3632;42.724;23.298;2024-03-02T04:46:54;38.07;;;26.57;;
7181;SDS011;3632;42.724;23.298;2024-03-02T04:49:21;34.10;;;25.47;;
7181;SDS011;3632;42.724;23.298;2024-03-02T04:51:48;40.13;;;27.77;;
7181;SDS011;3632;42.724;23.298;2024-03-02T04:54:15;39.70;;;26.63;;
7181;SDS011;3632;42.724;23.298;2024-03-02T04:56:43;39.93;;;26.70;;
7181;SDS011;3632;42.724;23.298;2024-03-02T04:59:09;37.67;;;26.83;;
7181;SDS011;3632;42.724;23.298;2024-03-02T05:01:36;39.23;;;28.30;;
7181;SDS011;3632;42.724;23.298;2024-03-02T05:04:03;42.47;;;29.63;;
7181;SDS011;3632;42.724;23.298;2024-03-02T05:06:30;41.63;;;29.60;;
7181;SDS011;3632;42.724;23.298;2024-03-02T05:08:57;40.30;;;29.53;;
7181;SDS011;3632;42.724;23.298;2024-03-02T05:11:23;45.17;;;30.87;;
7181;SDS011;3632;42.724;23.298;2024-03-02T05:14:11;43.37;;;30.10;;
7181;SDS011;3632;42.724;23.298;2024-03-02T05:16:38;40.97;;;28.83;;
7181;SDS011;3632;42.724;23.298;2024-03-02T05:19:06;44.03;;;29.60;;
7181;SDS011;3632;42.724;23.298;2024-03-02T05:21:32;43.50;;;29.63;;
7181;SDS011;3632;42.724;23.298;2024-03-02T05:23:59;43.40;;;29.63;;
7181;SDS011;3632;42.724;23.298;2024-03-02T05:26:26;46.87;;;31.07;;
7181;SDS011;3632;42.724;23.298;2024-03-02T05:28:53;45.03;;;31.13;;
7181;SDS011;3632;42.724;23.298;2024-03-02T05:31:21;47.97;;;31.97;;
7181;SDS011;3632;42.724;23.298;2024-03-02T05:33:48;48.27;;;31.90;;
7181;SDS011;3632;42.724;23.298;2024-03-02T05:36:14;44.80;;;31.33;;
7181;SDS011;3632;42.724;23.298;2024-03-02T05:38:41;44.23;;;29.57;;
7181;SDS011;3632;42.724;23.298;2024-03-02T05:41:08;43.53;;;28.17;;
7181;SDS011;3632;42.724;23.298;2024-03-02T05:43:34;45.53;;;28.60;;
7181;SDS011;3632;42.724;23.298;2024-03-02T05:46:01;43.83;;;28.03;;
7181;SDS011;3632;42.724;23.298;2024-03-02T05:48:31;43.57;;;27.60;;
7181;SDS011;3632;42.724;23.298;2024-03-02T05:51:02;41.63;;;27.83;;
7181;SDS011;3632;42.724;23.298;2024-03-02T05:53:29;42.60;;;27.23;;
7181;SDS011;3632;42.724;23.298;2024-03-02T05:55:56;37.97;;;25.73;;
7181;SDS011;3632;42.724;23.298;2024-03-02T05:58:22;39.37;;;25.93;;
7181;SDS011;3632;42.724;23.298;2024-03-02T06:01:02;39.87;;;26.10;;
7181;SDS011;3632;42.724;23.298;2024-03-02T06:03:31;40.00;;;26.80;;
7181;SDS011;3632;42.724;23.298;2024-03-02T06:05:58;39.33;;;25.83;;
7181;SDS011;3632;42.724;23.298;2024-03-02T06:08:24;39.63;;;26.23;;
7181;SDS011;3632;42.724;23.298;2024-03-02T06:10:51;42.60;;;26.23;;
7181;SDS011;3632;42.724;23.298;2024-03-02T06:13:18;39.33;;;25.93;;
7181;SDS011;3632;42.724;23.298;2024-03-02T06:15:45;38.27;;;25.80;;
7181;SDS011;3632;42.724;23.298;2024-03-02T06:18:12;41.67;;;26.50;;
7181;SDS011;3632;42.724;23.298;2024-03-02T06:20:40;40.50;;;25.03;;
7181;SDS011;3632;42.724;23.298;2024-03-02T06:23:07;37.80;;;25.03;;
7181;SDS011;3632;42.724;23.298;2024-03-02T06:25:33;42.80;;;27.20;;
7181;SDS011;3632;42.724;23.298;2024-03-02T06:28:05;39.60;;;25.43;;
7181;SDS011;3632;42.724;23.298;2024-03-02T06:30:32;38.47;;;25.30;;
7181;SDS011;3632;42.724;23.298;2024-03-02T06:32:59;39.70;;;25.00;;
7181;SDS011;3632;42.724;23.298;2024-03-02T06:35:25;36.40;;;24.87;;
7181;SDS011;3632;42.724;23.298;2024-03-02T06:37:54;37.23;;;24.47;;
7181;SDS011;3632;42.724;23.298;2024-03-02T06:40:20;37.10;;;24.77;;
7181;SDS011;3632;42.724;23.298;2024-03-02T06:42:47;42.60;;;27.00;;
7181;SDS011;3632;42.724;23.298;2024-03-02T06:45:14;38.47;;;26.07;;
7181;SDS011;3632;42.724;23.298;2024-03-02T06:47:40;37.20;;;24.53;;
7181;SDS011;3632;42.724;23.298;2024-03-02T06:50:08;40.97;;;25.67;;
7181;SDS011;3632;42.724;23.298;2024-03-02T06:52:35;40.37;;;26.20;;
7181;SDS011;3632;42.724;23.298;2024-03-02T06:57:45;39.67;;;25.70;;
7181;SDS011;3632;42.724;23.298;2024-03-02T07:00:15;40.47;;;25.70;;
7181;SDS011;3632;42.724;23.298;2024-03-02T07:02:43;43.40;;;26.27;;
7181;SDS011;3632;42.724;23.298;2024-03-02T07:05:09;40.10;;;24.87;;
7181;SDS011;3632;42.724;23.298;2024-03-02T07:07:36;39.57;;;25.17;;
7181;SDS011;3632;42.724;23.298;2024-03-02T07:10:04;42.93;;;25.17;;
7181;SDS011;3632;42.724;23.298;2024-03-02T07:12:33;42.30;;;25.67;;
7181;SDS011;3632;42.724;23.298;2024-03-02T07:15:00;38.43;;;24.50;;
7181;SDS011;3632;42.724;23.298;2024-03-02T07:17:49;37.97;;;24.10;;
7181;SDS011;3632;42.724;23.298;2024-03-02T07:20:16;42.23;;;24.57;;
7181;SDS011;3632;42.724;23.298;2024-03-02T07:22:43;34.67;;;23.20;;
7181;SDS011;3632;42.724;23.298;2024-03-02T07:25:10;39.13;;;25.03;;
7181;SDS011;3632;42.724;23.298;2024-03-02T07:27:38;35.53;;;23.93;;
7181;SDS011;3632;42.724;23.298;2024-03-02T07:30:06;36.60;;;24.00;;
7181;SDS011;3632;42.724;23.298;2024-03-02T07:32:33;41.77;;;24.80;;
7181;SDS011;3632;42.724;23.298;2024-03-02T07:35:00;44.17;;;24.43;;
7181;SDS011;3632;42.724;23.298;2024-03-02T07:37:28;39.33;;;24.07;;
7181;SDS011;3632;42.724;23.298;2024-03-02T07:39:55;38.57;;;24.77;;
7181;SDS011;3632;42.724;23.298;2024-03-02T07:42:22;40.93;;;24.30;;
7181;SDS011;3632;42.724;23.298;2024-03-02T07:44:51;38.53;;;25.20;;
7181;SDS011;3632;42.724;23.298;2024-03-02T07:47:17;35.77;;;23.93;;
7181;SDS011;3632;42.724;23.298;2024-03-02T07:49:44;38.90;;;23.13;;
7181;SDS011;3632;42.724;23.298;2024-03-02T07:52:11;38.23;;;24.50;;
7181;SDS011;3632;42.724;23.298;2024-03-02T07:54:38;36.67;;;23.57;;
7181;SDS011;3632;42.724;23.298;2024-03-02T07:57:05;38.63;;;23.63;;
7181;SDS011;3632;42.724;23.298;2024-03-02T07:59:32;34.80;;;23.00;;
7181;SDS011;3632;42.724;23.298;2024-03-02T08:02:00;35.90;;;23.23;;
7181;SDS011;3632;42.724;23.298;2024-03-02T08:04:26;34.77;;;23.20;;
7181;SDS011;3632;42.724;23.298;2024-03-02T08:06:53;35.03;;;22.47;;
7181;SDS011;3632;42.724;23.298;2024-03-02T08:09:20;39.97;;;23.60;;
7181;SDS011;3632;42.724;23.298;2024-03-02T08:11:47;38.60;;;24.17;;
7181;SDS011;3632;42.724;23.298;2024-03-02T08:14:14;38.00;;;24.77;;
7181;SDS011;3632;42.724;23.298;2024-03-02T08:16:41;35.53;;;23.60;;
7181;SDS011;3632;42.724;23.298;2024-03-02T08:19:09;35.20;;;23.97;;
7181;SDS011;3632;42.724;23.298;2024-03-02T08:21:36;35.73;;;24.73;;
7181;SDS011;3632;42.724;23.298;2024-03-02T08:24:03;38.13;;;23.80;;
7181;SDS011;3632;42.724;23.298;2024-03-02T08:26:30;34.80;;;23.63;;
7181;SDS011;3632;42.724;23.298;2024-03-02T08:28:57;36.67;;;23.67;;
7181;SDS011;3632;42.724;23.298;2024-03-02T08:31:24;34.80;;;23.37;;
7181;SDS011;3632;42.724;23.298;2024-03-02T08:33:51;36.10;;;23.43;;
7181;SDS011;3632;42.724;23.298;2024-03-02T08:36:19;35.83;;;24.50;;
7181;SDS011;3632;42.724;23.298;2024-03-02T08:38:47;39.90;;;25.10;;
7181;SDS011;3632;42.724;23.298;2024-03-02T08:41:15;36.20;;;24.80;;
7181;SDS011;3632;42.724;23.298;2024-03-02T08:43:41;37.50;;;24.13;;
7181;SDS011;3632;42.724;23.298;2024-03-02T08:46:09;36.13;;;24.03;;
7181;SDS011;3632;42.724;23.298;2024-03-02T08:48:35;39.03;;;25.43;;
7181;SDS011;3632;42.724;23.298;2024-03-02T08:51:02;37.53;;;23.83;;
7181;SDS011;3632;42.724;23.298;2024-03-02T08:53:34;38.97;;;24.17;;
7181;SDS011;3632;42.724;23.298;2024-03-02T08:56:00;37.13;;;24.33;;
7181;SDS011;3632;42.724;23.298;2024-03-02T08:58:30;41.83;;;24.50;;
7181;SDS011;3632;42.724;23.298;2024-03-02T09:00:57;41.90;;;24.73;;
7181;SDS011;3632;42.724;23.298;2024-03-02T09:03:24;35.43;;;23.50;;
7181;SDS011;3632;42.724;23.298;2024-03-02T09:05:51;35.07;;;23.10;;
7181;SDS011;3632;42.724;23.298;2024-03-02T09:08:17;37.33;;;24.00;;
7181;SDS011;3632;42.724;23.298;2024-03-02T09:10:45;38.60;;;23.77;;
7181;SDS011;3632;42.724;23.298;2024-03-02T09:13:12;31.77;;;22.07;;
7181;SDS011;3632;42.724;23.298;2024-03-02T09:15:39;32.83;;;23.27;;
7181;SDS011;3632;42.724;23.298;2024-03-02T09:18:06;35.00;;;22.47;;
7181;SDS011;3632;42.724;23.298;2024-03-02T09:20:42;34.27;;;23.07;;
7181;SDS011;3632;42.724;23.298;2024-03-02T09:23:08;33.73;;;23.13;;
7181;SDS011;3632;42.724;23.298;2024-03-02T09:25:34;38.63;;;23.27;;
7181;SDS011;3632;42.724;23.298;2024-03-02T09:28:03;35.27;;;22.60;;
7181;SDS011;3632;42.724;23.298;2024-03-02T09:30:30;35.10;;;22.73;;
7181;SDS011;3632;42.724;23.298;2024-03-02T09:32:57;32.97;;;22.37;;
7181;SDS011;3632;42.724;23.298;2024-03-02T09:35:25;34.63;;;23.57;;
7181;SDS011;3632;42.724;23.298;2024-03-02T09:37:52;36.43;;;23.33;;
7181;SDS011;3632;42.724;23.298;2024-03-02T09:40:20;34.33;;;22.33;;
7181;SDS011;3632;42.724;23.298;2024-03-02T09:42:48;34.13;;;23.40;;
7181;SDS011;3632;42.724;23.298;2024-03-02T09:45:19;33.43;;;23.67;;
7181;SDS011;3632;42.724;23.298;2024-03-02T09:47:49;35.40;;;22.90;;
7181;SDS011;3632;42.724;23.298;2024-03-02T09:50:16;37.87;;;24.00;;
7181;SDS011;3632;42.724;23.298;2024-03-02T09:52:43;34.73;;;23.43;;
7181;SDS011;3632;42.724;23.298;2024-03-02T09:55:10;35.03;;;24.17;;
7181;SDS011;3632;42.724;23.298;2024-03-02T09:57:38;36.90;;;24.73;;
7181;SDS011;3632;42.724;23.298;2024-03-02T10:00:05;42.47;;;28.37;;
7181;SDS011;3632;42.724;23.298;2024-03-02T10:02:34;37.53;;;26.43;;
7181;SDS011;3632;42.724;23.298;2024-03-02T10:05:01;38.03;;;26.20;;
7181;SDS011;3632;42.724;23.298;2024-03-02T10:07:29;39.00;;;26.20;;
7181;SDS011;3632;42.724;23.298;2024-03-02T10:09:56;36.37;;;25.50;;
7181;SDS011;3632;42.724;23.298;2024-03-02T10:12:22;38.83;;;24.77;;
7181;SDS011;3632;42.724;23.298;2024-03-02T10:14:49;37.90;;;25.07;;
7181;SDS011;3632;42.724;23.298;2024-03-02T10:17:17;32.57;;;23.37;;
7181;SDS011;3632;42.724;23.298;2024-03-02T10:19:46;38.30;;;25.73;;
7181;SDS011;3632;42.724;23.298;2024-03-02T10:22:12;36.00;;;24.97;;
7181;SDS011;3632;42.724;23.298;2024-03-02T10:24:40;35.40;;;24.50;;
7181;SDS011;3632;42.724;23.298;2024-03-02T10:27:09;34.47;;;24.00;;
7181;SDS011;3632;42.724;23.298;2024-03-02T10:29:41;35.47;;;24.37;;
7181;SDS011;3632;42.724;23.298;2024-03-02T10:32:08;38.67;;;24.83;;
7181;SDS011;3632;42.724;23.298;2024-03-02T10:34:36;36.47;;;24.50;;
7181;SDS011;3632;42.724;23.298;2024-03-02T10:37:04;37.10;;;25.03;;
7181;SDS011;3632;42.724;23.298;2024-03-02T10:39:32;36.47;;;23.70;;
7181;SDS011;3632;42.724;23.298;2024-03-02T10:42:00;37.77;;;24.73;;
7181;SDS011;3632;42.724;23.298;2024-03-02T10:44:29;33.70;;;22.77;;
7181;SDS011;3632;42.724;23.298;2024-03-02T10:46:56;33.70;;;23.00;;
7181;SDS011;3632;42.724;23.298;2024-03-02T10:49:26;31.03;;;21.93;;
7181;SDS011;3632;42.724;23.298;2024-03-02T10:51:55;33.57;;;22.50;;
7181;SDS011;3632;42.724;23.298;2024-03-02T10:54:23;33.73;;;24.10;;
7181;SDS011;3632;42.724;23.298;2024-03-02T10:56:54;31.97;;;23.30;;
7181;SDS011;3632;42.724;23.298;2024-03-02T10:59:26;31.87;;;22.63;;
7181;SDS011;3632;42.724;23.298;2024-03-02T11:01:55;32.63;;;22.90;;
7181;SDS011;3632;42.724;23.298;2024-03-02T11:04:24;33.93;;;23.17;;
7181;SDS011;3632;42.724;23.298;2024-03-02T11:06:52;32.83;;;22.67;;
7181;SDS011;3632;42.724;23.298;2024-03-02T11:09:25;31.77;;;22.40;;
7181;SDS011;3632;42.724;23.298;2024-03-02T11:11:56;29.33;;;21.57;;
7181;SDS011;3632;42.724;23.298;2024-03-02T11:14:29;31.17;;;21.60;;
7181;SDS011;3632;42.724;23.298;2024-03-02T11:16:58;33.97;;;23.47;;
7181;SDS011;3632;42.724;23.298;2024-03-02T11:19:25;34.90;;;23.50;;
7181;SDS011;3632;42.724;23.298;2024-03-02T11:21:52;31.17;;;22.60;;
7181;SDS011;3632;42.724;23.298;2024-03-02T11:24:29;32.43;;;23.30;;
7181;SDS011;3632;42.724;23.298;2024-03-02T11:27:00;34.23;;;22.90;;
7181;SDS011;3632;42.724;23.298;2024-03-02T11:29:42;32.27;;;22.63;;
7181;SDS011;3632;42.724;23.298;2024-03-02T11:32:13;32.27;;;21.97;;
7181;SDS011;3632;42.724;23.298;2024-03-02T11:34:41;28.23;;;21.53;;
7181;SDS011;3632;42.724;23.298;2024-03-02T11:37:11;29.37;;;21.77;;
7181;SDS011;3632;42.724;23.298;2024-03-02T11:39:41;30.87;;;21.13;;
7181;SDS011;3632;42.724;23.298;2024-03-02T11:42:09;30.83;;;21.67;;
7181;SDS011;3632;42.724;23.298;2024-03-02T11:44:37;32.33;;;24.47;;
7181;SDS011;3632;42.724;23.298;2024-03-02T11:47:05;28.73;;;19.33;;
7181;SDS011;3632;42.724;23.298;2024-03-02T11:49:36;30.60;;;19.37;;
7181;SDS011;3632;42.724;23.298;2024-03-02T11:52:04;29.00;;;19.73;;
7181;SDS011;3632;42.724;23.298;2024-03-02T11:54:31;28.27;;;20.60;;
7181;SDS011;3632;42.724;23.298;2024-03-02T11:57:01;26.53;;;18.70;;
7181;SDS011;3632;42.724;23.298;2024-03-02T11:59:28;25.37;;;18.23;;
7181;SDS011;3632;42.724;23.298;2024-03-02T12:01:55;28.50;;;20.00;;
7181;SDS011;3632;42.724;23.298;2024-03-02T12:04:23;27.03;;;18.77;;
7181;SDS011;3632;42.724;23.298;2024-03-02T12:06:54;29.30;;;19.70;;
7181;SDS011;3632;42.724;23.298;2024-03-02T12:09:21;27.63;;;18.53;;
7181;SDS011;3632;42.724;23.298;2024-03-02T12:11:48;24.17;;;18.77;;
7181;SDS011;3632;42.724;23.298;2024-03-02T12:14:16;25.07;;;18.50;;
7181;SDS011;3632;42.724;23.298;2024-03-02T12:16:43;25.27;;;18.97;;
7181;SDS011;3632;42.724;23.298;2024-03-02T12:19:10;25.80;;;18.87;;
7181;SDS011;3632;42.724;23.298;2024-03-02T12:21:37;24.87;;;18.93;;
7181;SDS011;3632;42.724;23.298;2024-03-02T12:24:04;27.33;;;19.43;;
7181;SDS011;3632;42.724;23.298;2024-03-02T12:26:31;27.50;;;19.13;;
7181;SDS011;3632;42.724;23.298;2024-03-02T12:28:58;25.40;;;18.83;;
7181;SDS011;3632;42.724;23.298;2024-03-02T12:31:26;26.00;;;19.03;;
7181;SDS011;3632;42.724;23.298;2024-03-02T12:33:53;26.03;;;19.57;;
7181;SDS011;3632;42.724;23.298;2024-03-02T12:36:21;30.97;;;20.10;;
7181;SDS011;3632;42.724;23.298;2024-03-02T12:38:48;24.47;;;17.70;;
7181;SDS011;3632;42.724;23.298;2024-03-02T12:41:20;25.37;;;18.67;;
7181;SDS011;3632;42.724;23.298;2024-03-02T12:43:47;23.70;;;18.00;;
7181;SDS011;3632;42.724;23.298;2024-03-02T12:46:14;24.73;;;17.83;;
7181;SDS011;3632;42.724;23.298;2024-03-02T12:48:42;25.07;;;17.67;;
7181;SDS011;3632;42.724;23.298;2024-03-02T12:51:09;25.70;;;18.77;;
7181;SDS011;3632;42.724;23.298;2024-03-02T12:53:36;25.53;;;18.80;;
7181;SDS011;3632;42.724;23.298;2024-03-02T12:56:03;24.67;;;18.17;;
7181;SDS011;3632;42.724;23.298;2024-03-02T12:58:38;25.63;;;18.80;;
7181;SDS011;3632;42.724;23.298;2024-03-02T13:01:06;23.53;;;16.30;;
7181;SDS011;3632;42.724;23.298;2024-03-02T13:03:34;23.37;;;17.10;;
7181;SDS011;3632;42.724;23.298;2024-03-02T13:06:04;23.27;;;16.30;;
7181;SDS011;3632;42.724;23.298;2024-03-02T13:08:31;25.37;;;17.03;;
7181;SDS011;3632;42.724;23.298;2024-03-02T13:10:58;27.63;;;19.33;;
7181;SDS011;3632;42.724;23.298;2024-03-02T13:13:25;25.40;;;19.60;;
7181;SDS011;3632;42.724;23.298;2024-03-02T13:15:54;23.30;;;17.07;;
7181;SDS011;3632;42.724;23.298;2024-03-02T13:18:21;22.20;;;17.43;;
7181;SDS011;3632;42.724;23.298;2024-03-02T13:20:48;23.20;;;17.20;;
7181;SDS011;3632;42.724;23.298;2024-03-02T13:23:16;22.83;;;16.80;;
7181;SDS011;3632;42.724;23.298;2024-03-02T13:25:43;22.47;;;16.83;;
7181;SDS011;3632;42.724;23.298;2024-03-02T13:28:12;21.93;;;16.10;;
7181;SDS011;3632;42.724;23.298;2024-03-02T13:30:39;22.50;;;16.83;;
7181;SDS011;3632;42.724;23.298;2024-03-02T13:33:06;24.67;;;16.50;;
7181;SDS011;3632;42.724;23.298;2024-03-02T13:35:33;23.67;;;17.33;;
7181;SDS011;3632;42.724;23.298;2024-03-02T13:37:59;25.13;;;17.90;;
7181;SDS011;3632;42.724;23.298;2024-03-02T13:40:27;21.93;;;17.20;;
7181;SDS011;3632;42.724;23.298;2024-03-02T13:42:55;23.10;;;17.30;;
7181;SDS011;3632;42.724;23.298;2024-03-02T13:45:22;21.67;;;16.60;;
7181;SDS011;3632;42.724;23.298;2024-03-02T13:47:49;22.67;;;17.17;;
7181;SDS011;3632;42.724;23.298;2024-03-02T13:50:17;23.80;;;17.07;;
7181;SDS011;3632;42.724;23.298;2024-03-02T13:52:43;22.07;;;16.87;;
7181;SDS011;3632;42.724;23.298;2024-03-02T13:55:10;24.63;;;17.57;;
7181;SDS011;3632;42.724;23.298;2024-03-02T13:57:38;21.97;;;16.60;;
7181;SDS011;3632;42.724;23.298;2024-03-02T14:00:06;21.03;;;16.37;;
7181;SDS011;3632;42.724;23.298;2024-03-02T14:02:36;25.63;;;17.20;;
7181;SDS011;3632;42.724;23.298;2024-03-02T14:05:03;22.60;;;16.83;;
7181;SDS011;3632;42.724;23.298;2024-03-02T14:07:30;24.27;;;17.63;;
7181;SDS011;3632;42.724;23.298;2024-03-02T14:09:57;23.93;;;17.97;;
7181;SDS011;3632;42.724;23.298;2024-03-02T14:12:24;23.93;;;17.87;;
7181;SDS011;3632;42.724;23.298;2024-03-02T14:14:52;22.33;;;16.50;;
7181;SDS011;3632;42.724;23.298;2024-03-02T14:17:23;19.23;;;16.10;;
7181;SDS011;3632;42.724;23.298;2024-03-02T14:19:49;20.40;;;16.73;;
7181;SDS011;3632;42.724;23.298;2024-03-02T14:22:17;22.00;;;16.70;;
7181;SDS011;3632;42.724;23.298;2024-03-02T14:24:43;21.47;;;16.63;;
7181;SDS011;3632;42.724;23.298;2024-03-02T14:27:11;19.73;;;15.83;;
7181;SDS011;3632;42.724;23.298;2024-03-02T14:29:39;20.90;;;16.73;;
7181;SDS011;3632;42.724;23.298;2024-03-02T14:32:07;22.77;;;17.43;;
7181;SDS011;3632;42.724;23.298;2024-03-02T14:34:34;21.37;;;16.70;;
7181;SDS011;3632;42.724;23.298;2024-03-02T14:37:01;24.73;;;17.57;;
7181;SDS011;3632;42.724;23.298;2024-03-02T14:39:28;22.43;;;16.70;;